sensor_id;sensor_type;location;lat;lon;timestamp;temperature;humidity
20610;DHT22;10463;52.378;9.688;2022-07-18T00:01:44;28.50;25.30
20610;DHT22;10463;52.378;9.688;2022-07-18T00:04:29;28.50;25.40
20610;DHT22;10463;52.378;9.688;2022-07-18T00:07:14;28.50;25.40
20610;DHT22;10463;52.378;9.688;2022-07-18T00:09:59;28.50;25.40
20610;DHT22;10463;52.378;9.688;2022-07-18T00:12:44;28.50;25.40
20610;DHT22;10463;52.378;9.688;2022-07-18T00:15:29;28.40;25.40
20610;DHT22;10463;52.378;9.688;2022-07-18T00:18:15;28.40;25.50
20610;DHT22;10463;52.378;9.688;2022-07-18T00:21:00;28.40;25.50
20610;DHT22;10463;52.378;9.688;2022-07-18T00:23:46;28.40;25.60
20610;DHT22;10463;52.378;9.688;2022-07-18T00:26:30;28.40;25.70
20610;DHT22;10463;52.378;9.688;2022-07-18T00:29:15;28.40;25.70
20610;DHT22;10463;52.378;9.688;2022-07-18T00:32:00;28.40;25.70
20610;DHT22;10463;52.378;9.688;2022-07-18T00:34:46;28.30;25.60
20610;DHT22;10463;52.378;9.688;2022-07-18T00:37:31;28.30;25.70
20610;DHT22;10463;52.378;9.688;2022-07-18T00:40:16;28.30;25.70
20610;DHT22;10463;52.378;9.688;2022-07-18T00:43:02;28.30;25.80
20610;DHT22;10463;52.378;9.688;2022-07-18T00:45:47;28.20;25.70
20610;DHT22;10463;52.378;9.688;2022-07-18T00:48:33;28.20;25.80
20610;DHT22;10463;52.378;9.688;2022-07-18T00:51:20;28.20;25.80
20610;DHT22;10463;52.378;9.688;2022-07-18T00:54:05;28.10;25.80
20610;DHT22;10463;52.378;9.688;2022-07-18T00:56:50;28.10;25.80
20610;DHT22;10463;52.378;9.688;2022-07-18T00:59:36;28.10;26.30
20610;DHT22;10463;52.378;9.688;2022-07-18T01:02:40;28.10;25.80
20610;DHT22;10463;52.378;9.688;2022-07-18T01:05:25;28.10;25.90
20610;DHT22;10463;52.378;9.688;2022-07-18T01:08:11;28.10;25.90
20610;DHT22;10463;52.378;9.688;2022-07-18T01:10:56;28.10;25.90
20610;DHT22;10463;52.378;9.688;2022-07-18T01:13:42;28.00;25.80
20610;DHT22;10463;52.378;9.688;2022-07-18T01:16:27;28.00;25.90
20610;DHT22;10463;52.378;9.688;2022-07-18T01:19:12;28.00;25.90
20610;DHT22;10463;52.378;9.688;2022-07-18T01:21:58;28.00;25.90
20610;DHT22;10463;52.378;9.688;2022-07-18T01:24:43;28.00;26.00
20610;DHT22;10463;52.378;9.688;2022-07-18T01:27:28;27.90;25.90
20610;DHT22;10463;52.378;9.688;2022-07-18T01:30:15;27.90;25.90
20610;DHT22;10463;52.378;9.688;2022-07-18T01:33:02;27.90;25.90
20610;DHT22;10463;52.378;9.688;2022-07-18T01:35:47;27.80;25.90
20610;DHT22;10463;52.378;9.688;2022-07-18T01:38:34;27.80;25.90
20610;DHT22;10463;52.378;9.688;2022-07-18T01:41:19;27.70;25.80
20610;DHT22;10463;52.378;9.688;2022-07-18T01:44:04;27.60;25.80
20610;DHT22;10463;52.378;9.688;2022-07-18T01:46:49;27.50;25.80
20610;DHT22;10463;52.378;9.688;2022-07-18T01:49:34;27.40;25.80
20610;DHT22;10463;52.378;9.688;2022-07-18T01:52:19;27.30;25.80
20610;DHT22;10463;52.378;9.688;2022-07-18T01:55:08;27.20;25.90
20610;DHT22;10463;52.378;9.688;2022-07-18T01:57:53;27.10;25.90
20610;DHT22;10463;52.378;9.688;2022-07-18T02:00:38;27.10;26.00
20610;DHT22;10463;52.378;9.688;2022-07-18T02:03:24;27.00;26.10
20610;DHT22;10463;52.378;9.688;2022-07-18T02:06:09;26.90;26.10
20610;DHT22;10463;52.378;9.688;2022-07-18T02:08:53;26.90;26.20
20610;DHT22;10463;52.378;9.688;2022-07-18T02:11:39;26.80;26.20
20610;DHT22;10463;52.378;9.688;2022-07-18T02:14:24;26.80;26.30
20610;DHT22;10463;52.378;9.688;2022-07-18T02:17:09;26.80;26.40
20610;DHT22;10463;52.378;9.688;2022-07-18T02:19:54;26.70;26.40
20610;DHT22;10463;52.378;9.688;2022-07-18T02:22:39;26.70;26.40
20610;DHT22;10463;52.378;9.688;2022-07-18T02:25:24;26.60;26.20
20610;DHT22;10463;52.378;9.688;2022-07-18T02:28:13;26.60;26.10
20610;DHT22;10463;52.378;9.688;2022-07-18T02:30:58;26.50;26.00
20610;DHT22;10463;52.378;9.688;2022-07-18T02:33:43;26.40;25.90
20610;DHT22;10463;52.378;9.688;2022-07-18T02:36:27;26.30;26.00
20610;DHT22;10463;52.378;9.688;2022-07-18T02:39:12;26.20;26.60
20610;DHT22;10463;52.378;9.688;2022-07-18T02:41:57;26.20;26.20
20610;DHT22;10463;52.378;9.688;2022-07-18T02:44:45;26.10;26.30
20610;DHT22;10463;52.378;9.688;2022-07-18T02:47:30;26.10;26.40
20610;DHT22;10463;52.378;9.688;2022-07-18T02:50:15;26.00;26.40
20610;DHT22;10463;52.378;9.688;2022-07-18T02:53:00;26.00;26.50
20610;DHT22;10463;52.378;9.688;2022-07-18T02:55:45;26.00;26.50
20610;DHT22;10463;52.378;9.688;2022-07-18T02:58:30;26.10;26.60
20610;DHT22;10463;52.378;9.688;2022-07-18T03:01:18;26.00;26.60
20610;DHT22;10463;52.378;9.688;2022-07-18T03:04:03;26.00;26.50
20610;DHT22;10463;52.378;9.688;2022-07-18T03:06:49;26.00;26.50
20610;DHT22;10463;52.378;9.688;2022-07-18T03:09:34;26.00;26.40
20610;DHT22;10463;52.378;9.688;2022-07-18T03:12:19;26.00;26.50
20610;DHT22;10463;52.378;9.688;2022-07-18T03:15:05;25.90;26.40
20610;DHT22;10463;52.378;9.688;2022-07-18T03:17:51;25.90;26.40
20610;DHT22;10463;52.378;9.688;2022-07-18T03:20:36;25.80;26.50
20610;DHT22;10463;52.378;9.688;2022-07-18T03:23:21;25.80;26.50
20610;DHT22;10463;52.378;9.688;2022-07-18T03:26:06;25.80;26.60
20610;DHT22;10463;52.378;9.688;2022-07-18T03:28:50;25.80;26.60
20610;DHT22;10463;52.378;9.688;2022-07-18T03:31:35;25.70;26.60
20610;DHT22;10463;52.378;9.688;2022-07-18T03:34:22;25.70;26.70
20610;DHT22;10463;52.378;9.688;2022-07-18T03:37:07;25.70;26.70
20610;DHT22;10463;52.378;9.688;2022-07-18T03:39:51;25.70;26.70
20610;DHT22;10463;52.378;9.688;2022-07-18T03:42:37;25.70;26.60
20610;DHT22;10463;52.378;9.688;2022-07-18T03:45:22;25.70;26.60
20610;DHT22;10463;52.378;9.688;2022-07-18T03:48:07;25.70;26.70
20610;DHT22;10463;52.378;9.688;2022-07-18T03:50:53;25.60;26.60
20610;DHT22;10463;52.378;9.688;2022-07-18T03:53:38;25.60;26.70
20610;DHT22;10463;52.378;9.688;2022-07-18T03:56:23;25.60;26.70
20610;DHT22;10463;52.378;9.688;2022-07-18T03:59:08;25.60;26.70
20610;DHT22;10463;52.378;9.688;2022-07-18T04:01:53;25.70;26.80
20610;DHT22;10463;52.378;9.688;2022-07-18T04:04:38;25.70;26.80
20610;DHT22;10463;52.378;9.688;2022-07-18T04:07:24;25.70;26.80
20610;DHT22;10463;52.378;9.688;2022-07-18T04:10:10;25.70;26.90
20610;DHT22;10463;52.378;9.688;2022-07-18T04:12:55;25.70;26.80
20610;DHT22;10463;52.378;9.688;2022-07-18T04:15:41;25.70;27.00
20610;DHT22;10463;52.378;9.688;2022-07-18T04:18:26;25.70;26.80
20610;DHT22;10463;52.378;9.688;2022-07-18T04:21:11;25.80;26.80
20610;DHT22;10463;52.378;9.688;2022-07-18T04:23:59;25.80;26.80
20610;DHT22;10463;52.378;9.688;2022-07-18T04:26:43;25.80;26.80
20610;DHT22;10463;52.378;9.688;2022-07-18T04:29:28;25.80;26.70
20610;DHT22;10463;52.378;9.688;2022-07-18T04:32:16;25.80;26.70
20610;DHT22;10463;52.378;9.688;2022-07-18T04:35:01;25.80;26.60
20610;DHT22;10463;52.378;9.688;2022-07-18T04:37:45;25.70;26.40
20610;DHT22;10463;52.378;9.688;2022-07-18T04:40:32;25.70;26.40
20610;DHT22;10463;52.378;9.688;2022-07-18T04:43:17;25.60;26.30
20610;DHT22;10463;52.378;9.688;2022-07-18T04:46:02;25.50;26.30
20610;DHT22;10463;52.378;9.688;2022-07-18T04:48:47;25.50;26.40
20610;DHT22;10463;52.378;9.688;2022-07-18T04:51:32;25.40;26.50
20610;DHT22;10463;52.378;9.688;2022-07-18T04:54:17;25.30;26.50
20610;DHT22;10463;52.378;9.688;2022-07-18T04:57:03;25.20;26.50
20610;DHT22;10463;52.378;9.688;2022-07-18T04:59:47;25.10;26.60
20610;DHT22;10463;52.378;9.688;2022-07-18T05:02:33;25.10;26.70
20610;DHT22;10463;52.378;9.688;2022-07-18T05:05:19;25.00;26.70
20610;DHT22;10463;52.378;9.688;2022-07-18T05:08:05;25.00;26.70
20610;DHT22;10463;52.378;9.688;2022-07-18T05:10:50;25.00;26.70
20610;DHT22;10463;52.378;9.688;2022-07-18T05:13:36;25.00;26.70
20610;DHT22;10463;52.378;9.688;2022-07-18T05:16:21;25.00;26.60
20610;DHT22;10463;52.378;9.688;2022-07-18T05:19:05;25.00;26.50
20610;DHT22;10463;52.378;9.688;2022-07-18T05:21:50;25.00;26.50
20610;DHT22;10463;52.378;9.688;2022-07-18T05:24:35;25.00;26.50
20610;DHT22;10463;52.378;9.688;2022-07-18T05:27:19;24.90;26.40
20610;DHT22;10463;52.378;9.688;2022-07-18T05:30:10;24.90;26.50
20610;DHT22;10463;52.378;9.688;2022-07-18T05:32:55;24.90;26.50
20610;DHT22;10463;52.378;9.688;2022-07-18T05:35:41;24.80;26.50
20610;DHT22;10463;52.378;9.688;2022-07-18T05:38:26;24.80;26.60
20610;DHT22;10463;52.378;9.688;2022-07-18T05:41:10;24.70;26.60
20610;DHT22;10463;52.378;9.688;2022-07-18T05:43:55;24.70;26.60
20610;DHT22;10463;52.378;9.688;2022-07-18T05:46:41;24.70;26.70
20610;DHT22;10463;52.378;9.688;2022-07-18T05:49:26;24.70;26.70
20610;DHT22;10463;52.378;9.688;2022-07-18T05:52:10;24.60;26.70
20610;DHT22;10463;52.378;9.688;2022-07-18T05:54:55;24.70;26.80
20610;DHT22;10463;52.378;9.688;2022-07-18T05:57:40;24.60;26.80
20610;DHT22;10463;52.378;9.688;2022-07-18T06:00:25;24.60;26.80
20610;DHT22;10463;52.378;9.688;2022-07-18T06:03:11;24.60;26.80
20610;DHT22;10463;52.378;9.688;2022-07-18T06:05:56;24.70;26.90
20610;DHT22;10463;52.378;9.688;2022-07-18T06:08:41;24.70;26.80
20610;DHT22;10463;52.378;9.688;2022-07-18T06:11:26;24.70;26.80
20610;DHT22;10463;52.378;9.688;2022-07-18T06:14:11;24.70;26.70
20610;DHT22;10463;52.378;9.688;2022-07-18T06:16:56;24.60;26.70
20610;DHT22;10463;52.378;9.688;2022-07-18T06:19:42;24.60;26.70
20610;DHT22;10463;52.378;9.688;2022-07-18T06:22:28;24.70;26.80
20610;DHT22;10463;52.378;9.688;2022-07-18T06:25:13;24.70;26.70
20610;DHT22;10463;52.378;9.688;2022-07-18T06:27:58;24.70;26.70
20610;DHT22;10463;52.378;9.688;2022-07-18T06:30:42;24.70;26.60
20610;DHT22;10463;52.378;9.688;2022-07-18T06:33:27;24.70;26.60
20610;DHT22;10463;52.378;9.688;2022-07-18T06:36:13;24.80;26.60
20610;DHT22;10463;52.378;9.688;2022-07-18T06:38:58;24.80;26.60
20610;DHT22;10463;52.378;9.688;2022-07-18T06:41:43;24.80;26.60
20610;DHT22;10463;52.378;9.688;2022-07-18T06:44:31;24.80;26.60
20610;DHT22;10463;52.378;9.688;2022-07-18T06:47:15;24.80;26.60
20610;DHT22;10463;52.378;9.688;2022-07-18T06:50:01;24.90;26.70
20610;DHT22;10463;52.378;9.688;2022-07-18T06:52:48;24.90;26.60
20610;DHT22;10463;52.378;9.688;2022-07-18T06:55:33;24.90;26.60
20610;DHT22;10463;52.378;9.688;2022-07-18T06:58:18;24.90;26.60
20610;DHT22;10463;52.378;9.688;2022-07-18T07:01:04;25.00;26.60
20610;DHT22;10463;52.378;9.688;2022-07-18T07:03:51;25.00;26.70
20610;DHT22;10463;52.378;9.688;2022-07-18T07:06:37;25.00;26.70
20610;DHT22;10463;52.378;9.688;2022-07-18T07:09:25;25.00;26.70
20610;DHT22;10463;52.378;9.688;2022-07-18T07:12:11;25.00;26.70
20610;DHT22;10463;52.378;9.688;2022-07-18T07:14:55;25.00;26.70
20610;DHT22;10463;52.378;9.688;2022-07-18T07:17:40;25.10;26.80
20610;DHT22;10463;52.378;9.688;2022-07-18T07:20:26;25.10;26.80
20610;DHT22;10463;52.378;9.688;2022-07-18T07:23:11;25.10;26.70
20610;DHT22;10463;52.378;9.688;2022-07-18T07:25:57;25.10;26.70
20610;DHT22;10463;52.378;9.688;2022-07-18T07:28:42;25.20;26.70
20610;DHT22;10463;52.378;9.688;2022-07-18T07:31:27;25.20;26.70
20610;DHT22;10463;52.378;9.688;2022-07-18T07:34:12;25.20;26.80
20610;DHT22;10463;52.378;9.688;2022-07-18T07:36:57;25.30;26.90
20610;DHT22;10463;52.378;9.688;2022-07-18T07:39:42;25.30;26.90
20610;DHT22;10463;52.378;9.688;2022-07-18T07:42:28;25.30;27.50
20610;DHT22;10463;52.378;9.688;2022-07-18T07:45:14;25.40;27.00
20610;DHT22;10463;52.378;9.688;2022-07-18T07:47:59;25.40;27.00
20610;DHT22;10463;52.378;9.688;2022-07-18T07:50:44;25.40;27.00
20610;DHT22;10463;52.378;9.688;2022-07-18T07:53:29;25.40;27.10
20610;DHT22;10463;52.378;9.688;2022-07-18T07:56:14;25.50;27.10
20610;DHT22;10463;52.378;9.688;2022-07-18T07:59:04;25.50;27.70
20610;DHT22;10463;52.378;9.688;2022-07-18T08:01:49;25.60;27.20
20610;DHT22;10463;52.378;9.688;2022-07-18T08:04:34;25.60;27.20
20610;DHT22;10463;52.378;9.688;2022-07-18T08:07:19;25.60;27.20
20610;DHT22;10463;52.378;9.688;2022-07-18T08:10:06;25.70;27.20
20610;DHT22;10463;52.378;9.688;2022-07-18T08:12:52;25.70;27.20
20610;DHT22;10463;52.378;9.688;2022-07-18T08:15:39;25.80;27.20
20610;DHT22;10463;52.378;9.688;2022-07-18T08:18:24;25.80;27.10
20610;DHT22;10463;52.378;9.688;2022-07-18T08:21:09;25.90;27.10
20610;DHT22;10463;52.378;9.688;2022-07-18T08:23:54;25.90;27.10
20610;DHT22;10463;52.378;9.688;2022-07-18T08:26:39;26.00;27.10
20610;DHT22;10463;52.378;9.688;2022-07-18T08:29:24;26.00;27.00
20610;DHT22;10463;52.378;9.688;2022-07-18T08:32:10;26.00;27.40
20610;DHT22;10463;52.378;9.688;2022-07-18T08:34:55;26.10;26.90
20610;DHT22;10463;52.378;9.688;2022-07-18T08:37:40;26.10;26.80
20610;DHT22;10463;52.378;9.688;2022-07-18T08:40:25;26.20;26.80
20610;DHT22;10463;52.378;9.688;2022-07-18T08:43:10;26.20;26.80
20610;DHT22;10463;52.378;9.688;2022-07-18T08:46:01;26.30;26.70
20610;DHT22;10463;52.378;9.688;2022-07-18T08:48:48;26.30;26.70
20610;DHT22;10463;52.378;9.688;2022-07-18T08:51:34;26.40;26.70
20610;DHT22;10463;52.378;9.688;2022-07-18T08:54:19;26.40;26.70
20610;DHT22;10463;52.378;9.688;2022-07-18T08:57:04;26.40;26.70
20610;DHT22;10463;52.378;9.688;2022-07-18T08:59:49;26.50;26.70
20610;DHT22;10463;52.378;9.688;2022-07-18T09:02:35;26.50;26.60
20610;DHT22;10463;52.378;9.688;2022-07-18T09:05:21;26.60;26.60
20610;DHT22;10463;52.378;9.688;2022-07-18T09:08:11;26.60;26.50
20610;DHT22;10463;52.378;9.688;2022-07-18T09:10:59;26.60;26.50
20610;DHT22;10463;52.378;9.688;2022-07-18T09:13:44;26.70;26.50
20610;DHT22;10463;52.378;9.688;2022-07-18T09:16:29;26.70;26.50
20610;DHT22;10463;52.378;9.688;2022-07-18T09:19:16;26.70;26.50
20610;DHT22;10463;52.378;9.688;2022-07-18T09:22:19;26.80;26.50
20610;DHT22;10463;52.378;9.688;2022-07-18T09:25:07;26.80;26.30
20610;DHT22;10463;52.378;9.688;2022-07-18T09:27:53;26.80;25.80
20610;DHT22;10463;52.378;9.688;2022-07-18T09:30:38;26.90;25.80
20610;DHT22;10463;52.378;9.688;2022-07-18T09:33:25;26.90;25.80
20610;DHT22;10463;52.378;9.688;2022-07-18T09:36:10;26.90;25.80
20610;DHT22;10463;52.378;9.688;2022-07-18T09:38:57;27.00;25.80
20610;DHT22;10463;52.378;9.688;2022-07-18T09:41:42;27.00;25.70
20610;DHT22;10463;52.378;9.688;2022-07-18T09:44:26;27.00;25.50
20610;DHT22;10463;52.378;9.688;2022-07-18T09:47:11;27.10;25.60
20610;DHT22;10463;52.378;9.688;2022-07-18T09:49:56;27.10;25.60
20610;DHT22;10463;52.378;9.688;2022-07-18T09:52:41;27.10;25.60
20610;DHT22;10463;52.378;9.688;2022-07-18T09:55:27;27.20;25.50
20610;DHT22;10463;52.378;9.688;2022-07-18T09:58:15;27.20;25.70
20610;DHT22;10463;52.378;9.688;2022-07-18T10:01:03;27.20;24.60
20610;DHT22;10463;52.378;9.688;2022-07-18T10:03:48;27.30;24.60
20610;DHT22;10463;52.378;9.688;2022-07-18T10:06:36;27.30;24.50
20610;DHT22;10463;52.378;9.688;2022-07-18T10:09:23;27.30;24.50
20610;DHT22;10463;52.378;9.688;2022-07-18T10:12:09;27.40;24.50
20610;DHT22;10463;52.378;9.688;2022-07-18T10:14:55;27.40;24.50
20610;DHT22;10463;52.378;9.688;2022-07-18T10:17:40;27.40;24.50
20610;DHT22;10463;52.378;9.688;2022-07-18T10:20:31;27.40;24.50
20610;DHT22;10463;52.378;9.688;2022-07-18T10:23:20;27.50;24.50
20610;DHT22;10463;52.378;9.688;2022-07-18T10:26:13;27.50;24.40
20610;DHT22;10463;52.378;9.688;2022-07-18T10:29:16;27.50;24.50
20610;DHT22;10463;52.378;9.688;2022-07-18T10:32:04;27.60;24.50
20610;DHT22;10463;52.378;9.688;2022-07-18T10:34:49;27.60;24.40
20610;DHT22;10463;52.378;9.688;2022-07-18T10:37:35;27.60;24.40
20610;DHT22;10463;52.378;9.688;2022-07-18T10:40:28;27.70;24.30
20610;DHT22;10463;52.378;9.688;2022-07-18T10:43:37;27.70;24.40
20610;DHT22;10463;52.378;9.688;2022-07-18T10:46:23;27.70;24.40
20610;DHT22;10463;52.378;9.688;2022-07-18T10:49:08;27.80;24.60
20610;DHT22;10463;52.378;9.688;2022-07-18T10:51:53;27.80;24.60
20610;DHT22;10463;52.378;9.688;2022-07-18T10:54:37;27.80;24.10
20610;DHT22;10463;52.378;9.688;2022-07-18T10:57:23;27.80;23.70
20610;DHT22;10463;52.378;9.688;2022-07-18T11:00:10;27.90;23.40
20610;DHT22;10463;52.378;9.688;2022-07-18T11:03:06;27.90;23.80
20610;DHT22;10463;52.378;9.688;2022-07-18T11:05:53;27.90;23.80
20610;DHT22;10463;52.378;9.688;2022-07-18T11:08:38;28.00;23.70
20610;DHT22;10463;52.378;9.688;2022-07-18T11:11:23;28.00;23.30
20610;DHT22;10463;52.378;9.688;2022-07-18T11:14:07;28.10;23.20
20610;DHT22;10463;52.378;9.688;2022-07-18T11:17:04;28.10;23.10
20610;DHT22;10463;52.378;9.688;2022-07-18T11:20:23;28.10;23.00
20610;DHT22;10463;52.378;9.688;2022-07-18T11:23:19;28.10;23.10
20610;DHT22;10463;52.378;9.688;2022-07-18T11:26:04;28.20;22.90
20610;DHT22;10463;52.378;9.688;2022-07-18T11:28:57;28.20;22.70
20610;DHT22;10463;52.378;9.688;2022-07-18T11:31:45;28.30;22.90
20610;DHT22;10463;52.378;9.688;2022-07-18T11:34:29;28.30;22.90
20610;DHT22;10463;52.378;9.688;2022-07-18T11:37:15;28.30;22.80
20610;DHT22;10463;52.378;9.688;2022-07-18T11:40:05;28.40;23.00
20610;DHT22;10463;52.378;9.688;2022-07-18T11:42:50;28.40;23.00
20610;DHT22;10463;52.378;9.688;2022-07-18T11:45:35;28.40;22.90
20610;DHT22;10463;52.378;9.688;2022-07-18T11:48:21;28.50;22.80
20610;DHT22;10463;52.378;9.688;2022-07-18T11:51:09;28.50;22.70
20610;DHT22;10463;52.378;9.688;2022-07-18T11:53:55;28.50;22.80
20610;DHT22;10463;52.378;9.688;2022-07-18T11:56:47;28.50;22.80
20610;DHT22;10463;52.378;9.688;2022-07-18T11:59:41;28.60;22.90
20610;DHT22;10463;52.378;9.688;2022-07-18T12:02:28;28.60;23.00
20610;DHT22;10463;52.378;9.688;2022-07-18T12:05:13;28.70;23.00
20610;DHT22;10463;52.378;9.688;2022-07-18T12:07:58;28.70;22.90
20610;DHT22;10463;52.378;9.688;2022-07-18T12:11:02;28.70;22.70
20610;DHT22;10463;52.378;9.688;2022-07-18T12:13:51;28.80;22.70
20610;DHT22;10463;52.378;9.688;2022-07-18T12:16:39;28.80;22.00
20610;DHT22;10463;52.378;9.688;2022-07-18T12:19:33;28.80;21.70
20610;DHT22;10463;52.378;9.688;2022-07-18T12:22:19;28.90;21.60
20610;DHT22;10463;52.378;9.688;2022-07-18T12:25:05;28.90;21.80
20610;DHT22;10463;52.378;9.688;2022-07-18T12:27:51;28.90;22.50
20610;DHT22;10463;52.378;9.688;2022-07-18T12:30:36;29.00;21.80
20610;DHT22;10463;52.378;9.688;2022-07-18T12:33:21;29.00;22.00
20610;DHT22;10463;52.378;9.688;2022-07-18T12:36:06;29.00;22.20
20610;DHT22;10463;52.378;9.688;2022-07-18T12:39:00;29.00;22.30
20610;DHT22;10463;52.378;9.688;2022-07-18T12:41:45;29.10;22.30
20610;DHT22;10463;52.378;9.688;2022-07-18T12:44:31;29.10;22.10
20610;DHT22;10463;52.378;9.688;2022-07-18T12:47:16;29.10;22.30
20610;DHT22;10463;52.378;9.688;2022-07-18T12:50:01;29.20;22.20
20610;DHT22;10463;52.378;9.688;2022-07-18T12:52:46;29.20;22.20
20610;DHT22;10463;52.378;9.688;2022-07-18T12:55:31;29.30;22.10
20610;DHT22;10463;52.378;9.688;2022-07-18T12:58:16;29.30;22.30
20610;DHT22;10463;52.378;9.688;2022-07-18T13:01:02;29.30;22.00
20610;DHT22;10463;52.378;9.688;2022-07-18T13:03:50;29.40;22.00
20610;DHT22;10463;52.378;9.688;2022-07-18T13:06:35;29.40;22.00
20610;DHT22;10463;52.378;9.688;2022-07-18T13:09:22;29.40;22.20
20610;DHT22;10463;52.378;9.688;2022-07-18T13:12:07;29.50;22.20
20610;DHT22;10463;52.378;9.688;2022-07-18T13:14:52;29.50;22.00
20610;DHT22;10463;52.378;9.688;2022-07-18T13:17:38;29.50;22.10
20610;DHT22;10463;52.378;9.688;2022-07-18T13:20:23;29.60;22.10
20610;DHT22;10463;52.378;9.688;2022-07-18T13:23:11;29.60;22.30
20610;DHT22;10463;52.378;9.688;2022-07-18T13:25:56;29.60;22.20
20610;DHT22;10463;52.378;9.688;2022-07-18T13:28:41;29.70;22.10
20610;DHT22;10463;52.378;9.688;2022-07-18T13:31:27;29.70;22.20
20610;DHT22;10463;52.378;9.688;2022-07-18T13:34:13;29.80;22.20
20610;DHT22;10463;52.378;9.688;2022-07-18T13:36:58;29.80;22.30
20610;DHT22;10463;52.378;9.688;2022-07-18T13:39:42;29.80;22.00
20610;DHT22;10463;52.378;9.688;2022-07-18T13:42:27;29.90;21.90
20610;DHT22;10463;52.378;9.688;2022-07-18T13:45:12;29.90;22.20
20610;DHT22;10463;52.378;9.688;2022-07-18T13:48:00;29.90;22.20
20610;DHT22;10463;52.378;9.688;2022-07-18T13:50:46;30.00;22.20
20610;DHT22;10463;52.378;9.688;2022-07-18T13:53:31;30.00;22.20
20610;DHT22;10463;52.378;9.688;2022-07-18T13:56:16;30.00;22.30
20610;DHT22;10463;52.378;9.688;2022-07-18T13:59:01;30.10;22.10
20610;DHT22;10463;52.378;9.688;2022-07-18T14:01:46;30.10;22.00
20610;DHT22;10463;52.378;9.688;2022-07-18T14:04:31;30.10;22.10
20610;DHT22;10463;52.378;9.688;2022-07-18T14:07:17;30.20;22.20
20610;DHT22;10463;52.378;9.688;2022-07-18T14:10:03;30.20;22.10
20610;DHT22;10463;52.378;9.688;2022-07-18T14:12:48;30.20;22.00
20610;DHT22;10463;52.378;9.688;2022-07-18T14:15:34;30.30;22.00
20610;DHT22;10463;52.378;9.688;2022-07-18T14:18:18;30.30;21.90
20610;DHT22;10463;52.378;9.688;2022-07-18T14:21:03;30.30;21.90
20610;DHT22;10463;52.378;9.688;2022-07-18T14:23:49;30.40;21.90
20610;DHT22;10463;52.378;9.688;2022-07-18T14:26:34;30.40;21.70
20610;DHT22;10463;52.378;9.688;2022-07-18T14:29:19;30.40;21.80
20610;DHT22;10463;52.378;9.688;2022-07-18T14:32:05;30.40;21.90
20610;DHT22;10463;52.378;9.688;2022-07-18T14:34:50;30.50;22.00
20610;DHT22;10463;52.378;9.688;2022-07-18T14:37:35;30.50;21.80
20610;DHT22;10463;52.378;9.688;2022-07-18T14:40:23;30.50;21.60
20610;DHT22;10463;52.378;9.688;2022-07-18T14:43:08;30.60;21.40
20610;DHT22;10463;52.378;9.688;2022-07-18T14:45:53;30.60;21.70
20610;DHT22;10463;52.378;9.688;2022-07-18T14:48:38;30.60;21.50
20610;DHT22;10463;52.378;9.688;2022-07-18T14:51:24;30.70;21.70
20610;DHT22;10463;52.378;9.688;2022-07-18T14:54:08;30.70;21.80
20610;DHT22;10463;52.378;9.688;2022-07-18T14:56:57;30.70;21.80
20610;DHT22;10463;52.378;9.688;2022-07-18T14:59:42;30.70;21.80
20610;DHT22;10463;52.378;9.688;2022-07-18T15:02:27;30.70;21.60
20610;DHT22;10463;52.378;9.688;2022-07-18T15:05:12;30.80;21.80
20610;DHT22;10463;52.378;9.688;2022-07-18T15:07:56;30.80;21.70
20610;DHT22;10463;52.378;9.688;2022-07-18T15:10:41;30.80;21.70
20610;DHT22;10463;52.378;9.688;2022-07-18T15:13:27;30.80;21.80
20610;DHT22;10463;52.378;9.688;2022-07-18T15:16:12;30.80;21.80
20610;DHT22;10463;52.378;9.688;2022-07-18T15:18:57;30.90;21.70
20610;DHT22;10463;52.378;9.688;2022-07-18T15:21:42;30.90;21.70
20610;DHT22;10463;52.378;9.688;2022-07-18T15:24:27;31.00;21.60
20610;DHT22;10463;52.378;9.688;2022-07-18T15:27:12;31.00;21.30
20610;DHT22;10463;52.378;9.688;2022-07-18T15:29:59;31.00;21.20
20610;DHT22;10463;52.378;9.688;2022-07-18T15:32:43;31.00;21.30
20610;DHT22;10463;52.378;9.688;2022-07-18T15:35:28;31.10;21.20
20610;DHT22;10463;52.378;9.688;2022-07-18T15:38:13;31.10;21.30
20610;DHT22;10463;52.378;9.688;2022-07-18T15:40:58;31.10;21.40
20610;DHT22;10463;52.378;9.688;2022-07-18T15:43:43;31.10;21.40
20610;DHT22;10463;52.378;9.688;2022-07-18T15:46:29;31.10;21.40
20610;DHT22;10463;52.378;9.688;2022-07-18T15:49:13;31.20;21.50
20610;DHT22;10463;52.378;9.688;2022-07-18T15:51:59;31.20;21.50
20610;DHT22;10463;52.378;9.688;2022-07-18T15:54:44;31.20;21.30
20610;DHT22;10463;52.378;9.688;2022-07-18T15:57:29;31.20;21.40
20610;DHT22;10463;52.378;9.688;2022-07-18T16:00:15;31.20;21.30
20610;DHT22;10463;52.378;9.688;2022-07-18T16:03:01;31.30;21.60
20610;DHT22;10463;52.378;9.688;2022-07-18T16:05:46;31.30;21.80
20610;DHT22;10463;52.378;9.688;2022-07-18T16:08:31;31.30;21.80
20610;DHT22;10463;52.378;9.688;2022-07-18T16:11:16;31.40;22.00
20610;DHT22;10463;52.378;9.688;2022-07-18T16:14:01;31.40;21.90
20610;DHT22;10463;52.378;9.688;2022-07-18T16:16:45;31.40;21.80
20610;DHT22;10463;52.378;9.688;2022-07-18T16:19:31;31.40;21.90
20610;DHT22;10463;52.378;9.688;2022-07-18T16:22:16;31.40;21.90
20610;DHT22;10463;52.378;9.688;2022-07-18T16:25:01;31.40;22.00
20610;DHT22;10463;52.378;9.688;2022-07-18T16:27:46;31.50;22.10
20610;DHT22;10463;52.378;9.688;2022-07-18T16:30:31;31.50;22.30
20610;DHT22;10463;52.378;9.688;2022-07-18T16:33:17;31.50;22.10
20610;DHT22;10463;52.378;9.688;2022-07-18T16:36:04;31.50;22.00
20610;DHT22;10463;52.378;9.688;2022-07-18T16:38:49;31.50;21.90
20610;DHT22;10463;52.378;9.688;2022-07-18T16:41:34;31.50;21.60
20610;DHT22;10463;52.378;9.688;2022-07-18T16:44:20;31.60;21.70
20610;DHT22;10463;52.378;9.688;2022-07-18T16:47:07;31.60;21.60
20610;DHT22;10463;52.378;9.688;2022-07-18T16:49:52;31.60;21.60
20610;DHT22;10463;52.378;9.688;2022-07-18T16:52:40;31.60;21.50
20610;DHT22;10463;52.378;9.688;2022-07-18T16:55:26;31.60;21.30
20610;DHT22;10463;52.378;9.688;2022-07-18T16:58:11;31.70;21.40
20610;DHT22;10463;52.378;9.688;2022-07-18T17:00:57;31.70;21.40
20610;DHT22;10463;52.378;9.688;2022-07-18T17:03:42;31.70;21.20
20610;DHT22;10463;52.378;9.688;2022-07-18T17:06:27;31.70;21.10
20610;DHT22;10463;52.378;9.688;2022-07-18T17:09:14;31.70;21.10
20610;DHT22;10463;52.378;9.688;2022-07-18T17:12:00;31.70;21.10
20610;DHT22;10463;52.378;9.688;2022-07-18T17:14:45;31.70;21.10
20610;DHT22;10463;52.378;9.688;2022-07-18T17:17:30;31.70;21.00
20610;DHT22;10463;52.378;9.688;2022-07-18T17:20:16;31.70;21.10
20610;DHT22;10463;52.378;9.688;2022-07-18T17:23:01;31.80;21.20
20610;DHT22;10463;52.378;9.688;2022-07-18T17:25:48;31.80;21.30
20610;DHT22;10463;52.378;9.688;2022-07-18T17:28:36;31.80;21.80